Robin Babel

Scout - AZ
20 Feb 2028
Sunday
Process

Personality

Adaptability (16) Ambition (18) Controversy (9) Loyalty (7) Pressure (20) Professionalism (12) Sportsmanship (3) Temperament (18)

Profile

Coaching Style Democratic
License Continental A
Determination 13
Man Management 14
Motivating 5
Discipline 7
Job Satisfaction
100%
Fatigue
0%
Role Scout
Wage 92.9K p/w
Contract 14.03.2030

Performance

Behaviour Good
Training Effectiveness
68%
Player Development
45%
Injury Prevention
30%
Tactical Implementation
75%

Recent Events

Attended a recruitment meeting 14d ago
Attended a recruitment meeting 21d ago
Attending professional development 28d ago
Attended a recruitment meeting 28d ago
Presented a dossier to the board 28d ago
Attending professional development 28d ago
Attending professional development 28d ago
Attending professional development 28d ago

Currently Monitoring

119
Player Club Status Ability Confidence Watched Last Observed Latest Vote
Nicolas Verkooijen PSV Active 102 / 120 40% 3 31.12.2027 -
Dylan Cabral Arsenal Active 105 / 107 40% 4 31.12.2027 -
Samuel Lino Flamengo Active 144 / 141 40% 5 29.12.2027 -
Reiss Nelson Aston Villa Active 140 / 148 40% 2 29.12.2027 -
Pedro de la Vega FC Dallas Active 154 / 133 40% 4 28.12.2027 -
Jayden Danns Wigan Athletic Active 146 / 141 40% 1 28.12.2027 -
Baylee Dipepa Norwich City Active 102 / 122 40% 2 27.12.2027 -
Lucas Piton Vasco da Gama Active 138 / 133 40% 2 26.12.2027 -
Bart van Rooij Twente Active 152 / 141 40% 1 26.12.2027 -
Igor Tyjon Doncaster Rovers Active 108 / 125 40% 2 25.12.2027 -
Maren Kefas Plateau United Active 86 / 92 40% 1 25.12.2027 -
Rodrigo Garro Corinthians Active 157 / 141 40% 5 23.12.2027 -
Oihan Sancet Athletic Bilbao Active 159 / 164 40% 2 22.12.2027 -
Gaspar Gijón Active 141 / 138 40% 2 22.12.2027 -
Dango Ouattara Brentford Active 149 / 150 40% 5 18.12.2027 -
Benjamín Rollheiser Santos Active 121 / 136 40% 1 18.12.2027 -
Jake Evans Colchester United Active 108 / 121 40% 1 18.12.2027 -
Yoann Cathline Utrecht Lost 150 / 136 40% 1 15.12.2027 -
Iliman N'Diaye Everton Active 174 / 159 40% 3 14.12.2027 -
Brian Rodríguez Club America Active 152 / 134 40% 1 14.12.2027 -
Tiziano Perrotta Mirandés Active 101 / 110 40% 1 12.12.2027 -
Andrés Gómez Vasco da Gama Active 122 / 134 40% 3 10.12.2027 -
Félix Lemaréchal Club Brugge Active 136 / 141 40% 2 10.12.2027 -
Jofre Carreras Huesca Active 151 / 140 40% 1 08.12.2027 -
Brooke Norton-Cuffy Inter Miami CF Active 136 / 137 40% 1 07.12.2027 -
Thiago Almada AC Milan Active 154 / 153 40% 1 07.12.2027 -
Zak Lovelace Crewe Alexandra Active 116 / 120 40% 2 05.12.2027 -
Ramiro Jara Racing Active 73 / 91 40% 1 05.12.2027 -
Gabri Veiga Feyenoord Active 144 / 158 40% 1 02.12.2027 -
José Paradela Tigres Active 158 / 144 40% 2 01.12.2027 -
Caio Alexandre Bahia Active 132 / 135 40% 2 29.11.2027 -
Jeon Jin-Woo Clermont Foot Active 127 / 132 40% 1 29.11.2027 -
Kevin Angulo America de Cali Active 87 / 111 40% 1 29.11.2027 -
Yojan Garcés America de Cali Active 121 / 122 40% 2 24.11.2027 -
Siyabonga Mabena Chippa United Active 136 / 127 40% 2 24.11.2027 -
Élohim Kaboré Hammarby Active 120 / 122 40% 3 22.11.2027 -
Marvin Illary Helsingborg Active 92 / 87 40% 1 22.11.2027 -
Adama Goïta Remo Stars Active 92 / 102 40% 1 19.11.2027 -
Ander Barrenetxea Deportivo La Coruña Active 146 / 154 40% 2 16.11.2027 -
Timofey Simanenka Gomel Active 102 / 102 40% 1 15.11.2027 -
Yankuba Minteh Brighton Active 160 / 157 40% 1 13.11.2027 -
Renan Lodi Atlético Mineiro Active 122 / 139 40% 2 09.11.2027 -
Ismaël Bennacer Malmo FF Active 159 / 148 40% 1 09.11.2027 -
Agustín Ruberto River Plate Active 117 / 128 40% 5 05.11.2027 -
Luca Williams-Barnett Tranmere Rovers Active 129 / 128 40% 2 05.11.2027 -
Nicolás Azambuja Cádiz Active 114 / 128 40% 1 04.11.2027 -
Egor Yuschenko Volna Pinsk Active 80 / 82 40% 1 04.11.2027 -
Andrés Calderón Deportivo Pereira Active 89 / 91 40% 1 03.11.2027 -
Anton Höög IFK Norrkoping Active 106 / 102 40% 1 03.11.2027 -
Jan Virgili Club Brugge Active 127 / 137 40% 2 02.11.2027 -
Facundo Martínez Montevideo City Torque Active 68 / 95 40% 1 02.11.2027 -
Amaury Morales Pumas UNAM Active 100 / 126 40% 1 31.10.2027 -
Diego Lainez Tigres Active 126 / 134 40% 2 29.10.2027 -
Kevin Schade Brentford Active 161 / 153 40% 1 29.10.2027 -
Duvan Rangel La Equidad Active 122 / 136 40% 1 27.10.2027 -
Jorge Carrascal Flamengo Active 140 / 137 40% 1 26.10.2027 -
Maurício Palmeiras Active 149 / 134 40% 3 25.10.2027 -
Ramón Sosa Palmeiras Active 132 / 137 40% 1 16.10.2027 -
Álvaro Barreal Santos Active 152 / 135 40% 1 15.10.2027 -
Sandro Tonali Tottenham Active 186 / 175 40% 1 15.10.2027 -
Vitinho Botafogo Active 125 / 132 40% 1 11.10.2027 -
Marcus Holmgren Pedersen Valerenga Active 144 / 133 40% 1 11.10.2027 -
Telasco Segovia Inter Miami CF Active 124 / 135 40% 1 10.10.2027 -
Kevin Paredes River Plate Active 152 / 133 40% 1 08.10.2027 -
Julián Fabregas Jaguares Active 74 / 92 40% 1 06.10.2027 -
Babis Kostoulas Brighton Active 132 / 145 40% 1 06.10.2027 -
Alejandro Zendejas Club America Active 159 / 145 40% 1 01.10.2027 -
Ruben van Bommel Ferencvaros Active 125 / 137 40% 6 30.09.2027 -
Danilo Botafogo Active 159 / 139 40% 1 23.09.2027 -
Patrick Berg Bodo/Glimt Active 139 / 140 40% 1 22.09.2027 -
Emam Ashour Alianza Lima Active 154 / 137 40% 1 20.09.2027 -
Freddie Potts Club Brugge Active 141 / 137 40% 1 19.09.2027 -
Clement Bischoff Red Bull Salzburg Active 126 / 132 40% 1 06.09.2027 -
Leo Castledine Middlesbrough Active 128 / 137 40% 1 02.08.2027 -
Rune Spinnoy Westerlo Active 70 / 84 40% 1 20.07.2027 -
Tommaso Orsini Sambenedettese Active 100 / 111 40% 1 20.07.2027 -
Marvin Peersman Groningen Active 123 / 118 55% 1 02.06.2027 -
Mikel Jauregizar Athletic Bilbao Active 160 / 158 40% 1 31.05.2027 -
Othmane Maamma Watford Active 117 / 129 40% 1 31.05.2027 -
Yvandro Borges Sanches Heracles Active 117 / 112 51% 1 01.01.2027 -
Jonathan Dubasin Osasuna Active 148 / 143 40% 1 31.12.2026 -
Strahinja Manojlović Radnicki Nis Active 112 / 109 40% 1 29.12.2026 -
Lucas Cañizares Tondela Active 115 / 110 40% 1 25.12.2026 -
Tani Oluwaseyi Villarreal Active 154 / 143 40% 2 22.12.2026 -
Thiago Brentford Active 147 / 147 40% 1 16.12.2026 -
Luis Vázquez Birmingham Active 142 / 129 40% 1 16.12.2026 -
Rafiu Durosinmi Racing Genk Active 134 / 129 40% 2 15.12.2026 -
Ez Abde Girona Active 150 / 150 40% 2 15.12.2026 -
Georges Mikautadze Villarreal Active 154 / 151 40% 1 09.12.2026 -
Myron van Brederode KV Mechelen Active 127 / 123 40% 2 08.12.2026 -
Yousef Salech Cardiff City Active 117 / 125 40% 2 08.12.2026 -
Filip Marschall Stevenage Active 103 / 114 40% 1 04.12.2026 -
Anton Zhylkin Karpaty Active 92 / 101 40% 1 27.11.2026 -
Robin Roefs Sunderland Active 139 / 146 40% 1 27.11.2026 -
Pablo Felipe West Ham United Active 134 / 134 40% 3 26.11.2026 -
Manfred Ugalde Spartak Moscow Active 141 / 134 40% 1 26.11.2026 -
Kilian Nikiéma ADO Den Haag Active 116 / 119 40% 2 24.11.2026 -
Murphy Cooper Plymouth Argyle Active 107 / 111 40% 3 22.11.2026 -
Ozziel Herrera Tigres Active 119 / 130 40% 1 18.11.2026 -
Kévin Denkey FC Cincinnati Active 139 / 130 40% 1 02.11.2026 -
Aune Heggebø West Bromwich Albion Active 130 / 130 40% 1 02.11.2026 -
Nicolas Jackson Aston Villa Active 156 / 149 40% 2 29.10.2026 -
Adriano Bertaccini Anderlecht Active 116 / 125 40% 2 24.10.2026 -
Manuel Rios La Equidad Active 94 / 103 40% 2 10.10.2026 -
Georginio Rutter Brighton Active 159 / 150 40% 1 10.10.2026 -
Bénie Traoré New York City Active 124 / 126 40% 1 10.10.2026 -
James Trafford Leeds United Active 132 / 141 40% 1 10.10.2026 -
Wessam Abou Ali Columbus Crew Active 144 / 127 40% 1 05.10.2026 -
Alonso Martínez New York City Active 107 / 117 40% 1 03.10.2026 -
Erick Reyes Toluca Active 153 / 139 40% 1 21.09.2026 -
Tadeo Allende Inter Miami CF Active 132 / 122 40% 1 16.09.2026 -
Manuel Ospina Cortulua Active 122 / 125 40% 1 14.09.2026 -
Leonardo Campana New England Revolution Active 139 / 124 40% 1 13.09.2026 -
Romeo Vermant Club Brugge Active 114 / 123 40% 1 13.09.2026 -
Tomás Ahumada Audax Italiano Active 105 / 111 40% 1 10.09.2026 -
Cheikh Sabaly Vancouver Whitecaps Active 139 / 126 40% 1 09.09.2026 -
Ebbe De Vlaeminck Lokeren Active 80 / 97 40% 1 08.09.2026 -
Tjaronn Chery NEC Active 115 / 125 51% 1 03.08.2026 -
Joe Gomez Liverpool Active 144 / 150 40% 1 01.08.2026 -